Terminal Aerodrome Forecast
Issued by NWS

Home | Current Version | Previous Version | Text Only | Print | Product List | Glossary On
Versions: 1 2 3 4 5 6 7 8 9 10 11 12 13
000
FTUS45 KFGZ 280100 AAA
TAFPRC
TAF AMD
KPRC 280123Z 2801/2824 22011KT P6SM OVC080
     FM280600 20011KT P6SM VCSH SCT040 OVC060
     FM280900 21015G25KT P6SM VCSH SCT030 OVC050
     FM281600 22018G32KT 5SM -SHRA SCT020 OVC030=

USA.gov is the U.S. government's official web portal to all federal, state and local government web resources and services.